Weather reports worldwide

Advertisment
Ross-on-Wye, United Kingdom (99207): temperature & dewpoint: 15.01.2020 22:00:00 - 21.01.2020 22:00:00 (GMT)Ross-on-Wye, United Kingdom (99207): temperature -20cm: 15.01.2020 22:00:00 - 21.01.2020 22:00:00 (GMT)Ross-on-Wye, United Kingdom (99207): wind speed & gusts: 15.01.2020 22:00:00 - 21.01.2020 22:00:00 (GMT)Ross-on-Wye, United Kingdom (99207): wind direction: 15.01.2020 22:00:00 - 21.01.2020 22:00:00 (GMT)Ross-on-Wye, United Kingdom (99207): sunshine duration: 15.01.2020 22:00:00 - 21.01.2020 22:00:00 (GMT)Ross-on-Wye, United Kingdom (99207): precipitation: 15.01.2020 22:00:00 - 21.01.2020 22:00:00 (GMT)
Date & Time tt [°C] td [°C] tt -20cm [°C] ff [km/h] ff [kn] fx [km/h] fx [kn] dd sd [min] rr [mm]
21.01.2020 22:00:00 3,6 3,1 - 4 2 - - SSW 0 0,0
21.01.2020 21:00:00 3,6 2,4 - 4 2 - - WSW 0 0,0
21.01.2020 20:00:00 3,7 2,1 - 2 1 - - W 0 0,0
21.01.2020 19:00:00 4,1 2,2 - 2 1 - - E 0 0,0
21.01.2020 18:00:00 4,6 2,3 - 4 2 - - SSW 0 0,0
21.01.2020 17:00:00 4,2 1,8 - 5 3 - - SSW 0 0,0
21.01.2020 16:00:00 6,5 2,5 - 2 1 - - ESE 42 0,0
21.01.2020 15:00:00 6,9 2,7 - 4 2 - - W 60 0,0
21.01.2020 14:00:00 5,7 3,1 - 2 1 - - W 60 0,0
21.01.2020 13:00:00 3,4 2,7 - 2 1 - - N 60 0,0
21.01.2020 12:00:00 1,0 0,7 - 2 1 - - NNW 60 0,2
21.01.2020 11:00:00 -1,0 -1,1 - 2 1 - - W 48 0,0
21.01.2020 10:00:00 -2,4 -2,6 - 0 0 - - N 36 0,0
21.01.2020 09:00:00 -3,1 -3,3 5,2 2 1 - - SSE 0 0,0
21.01.2020 08:00:00 -3,6 -3,9 - 0 0 - - N 0 0,0
21.01.2020 07:00:00 -3,8 -4,3 - 2 1 - - SSE 0 0,0
21.01.2020 06:00:00 -3,3 -3,6 - 2 1 - - SSE 0 0,0
21.01.2020 05:00:00 - - - - - - - - - -
21.01.2020 04:00:00 -3,0 -3,4 - 2 1 - - ENE 0 0,0
21.01.2020 03:00:00 -2,6 -3,0 - 4 2 - - SSW 0 0,0
21.01.2020 02:00:00 - - - - - - - - - -
21.01.2020 01:00:00 -2,1 -2,5 - 2 1 - - ENE 0 0,0
21.01.2020 00:00:00 -1,9 -2,2 - 4 2 - - SSW - 0,0
20.01.2020 23:00:00 -1,2 -1,5 - 2 1 - - SE 0 0,0
20.01.2020 22:00:00 - - - - - - - - - 0,0
20.01.2020 21:00:00 - - - - - - - - - 0,0
20.01.2020 20:00:00 - - - - - - - - - 0,0
20.01.2020 19:00:00 - - - - - - - - - 0,0
20.01.2020 18:00:00 - - - - - - - - - -
20.01.2020 17:00:00 - - - - - - - - - -
20.01.2020 16:00:00 - - - - - - - - - 0,0
20.01.2020 15:00:00 - - - - - - - - - 0,0
20.01.2020 14:00:00 - - - - - - - - - 0,0
20.01.2020 13:00:00 - - - - - - - - - 0,0
20.01.2020 12:00:00 - - - - - - - - - -
20.01.2020 11:00:00 - - - - - - - - - -
20.01.2020 10:00:00 - - - - - - - - - -
20.01.2020 09:00:00 - - - - - - - - - -
20.01.2020 08:00:00 - - - - - - - - - 0,0
20.01.2020 07:00:00 - - - - - - - - - -
20.01.2020 06:00:00 - - - - - - - - - -
20.01.2020 05:00:00 - - - - - - - - - -
20.01.2020 04:00:00 - - - - - - - - - -
20.01.2020 03:00:00 - - - - - - - - - -
20.01.2020 02:00:00 - - - - - - - - - -
20.01.2020 01:00:00 - - - - - - - - - 0,0
20.01.2020 00:00:00 - - - - - - - - - -
19.01.2020 23:00:00 - - - - - - - - - -
19.01.2020 22:00:00 - - - - - - - - - -
19.01.2020 21:00:00 - - - - - - - - - 0,0
19.01.2020 20:00:00 - - - - - - - - - -
19.01.2020 19:00:00 - - - - - - - - - -
19.01.2020 18:00:00 - - - - - - - - - 0,0
19.01.2020 17:00:00 - - - - - - - - - -
19.01.2020 16:00:00 - - - - - - - - - -
19.01.2020 15:00:00 - - - - - - - - - 0,0
19.01.2020 14:00:00 - - - - - - - - - -
19.01.2020 13:00:00 - - - - - - - - - 0,0
19.01.2020 12:00:00 - - - - - - - - - -
19.01.2020 11:00:00 - - - - - - - - - -
19.01.2020 10:00:00 - - - - - - - - - -
19.01.2020 09:00:00 - - - - - - - - - -
19.01.2020 08:00:00 - - - - - - - - - -
19.01.2020 07:00:00 - - - - - - - - - -
19.01.2020 06:00:00 - - - - - - - - - -
19.01.2020 05:00:00 - - - - - - - - - 0,0
19.01.2020 04:00:00 -0,3 -1,0 - 2 1 - - S 0 0,0
19.01.2020 03:00:00 0,1 -0,5 - 2 1 - - W 0 0,0
19.01.2020 02:00:00 -0,1 -1,3 - 4 2 - - SW 0 0,0
19.01.2020 01:00:00 0,4 -1,0 - 2 1 - - S 0 0,0
19.01.2020 00:00:00 1,6 0,0 - 4 2 - - ENE - 0,0
18.01.2020 23:00:00 2,0 -0,4 - 5 3 - - SSW 0 0,0
18.01.2020 22:00:00 2,0 -0,6 - 8 4 - - SSW 0 0,0
18.01.2020 21:00:00 2,5 0,3 - 8 4 - - SW 0 0,0
18.01.2020 20:00:00 2,9 0,7 - 8 4 - - SW 0 0,0
18.01.2020 19:00:00 2,9 0,5 - 4 2 - - SSW 0 0,0
18.01.2020 18:00:00 3,5 0,6 - 2 1 - - NW 0 0,0
18.01.2020 17:00:00 4,2 0,8 - 0 0 - - N 0 0,0
18.01.2020 16:00:00 5,9 0,6 - 4 2 - - N 6 0,0
18.01.2020 15:00:00 7,1 0,8 - 4 2 - - WNW 42 0,0
18.01.2020 14:00:00 6,4 0,7 - 5 3 - - WNW 42 0,0
18.01.2020 13:00:00 5,9 1,6 - 9 5 - - W 60 0,0
18.01.2020 12:00:00 4,8 1,7 - 5 3 - - WSW 54 0,0
18.01.2020 11:00:00 3,0 1,9 - 5 3 - - SSW 60 0,0
18.01.2020 10:00:00 1,2 1,0 - 2 1 - - SW 54 0,0
18.01.2020 09:00:00 -0,2 -0,7 7,2 4 2 - - SE 0 0,0
18.01.2020 08:00:00 0,7 -0,2 - 5 3 - - SSW 0 0,0
18.01.2020 07:00:00 1,4 -0,2 - 4 2 - - SSW 0 0,0
18.01.2020 06:00:00 1,8 0,1 - 8 4 - - SW 0 0,0
18.01.2020 05:00:00 2,3 0,9 - 9 5 - - SSW 0 0,0
18.01.2020 04:00:00 2,7 1,0 - 9 5 - - SW 0 0,0
18.01.2020 03:00:00 3,1 1,3 - 9 5 - - SSW 0 0,0
18.01.2020 02:00:00 3,3 1,0 - 11 6 - - SSW 0 0,0
18.01.2020 01:00:00 3,0 1,3 - 9 5 - - SW 0 0,0
18.01.2020 00:00:00 3,2 1,7 - 8 4 - - WSW - 0,0
17.01.2020 23:00:00 3,5 1,8 - 11 6 - - WSW 0 0,0
17.01.2020 22:00:00 3,3 1,6 - 13 7 - - SW 0 0,0
17.01.2020 21:00:00 3,1 1,7 - 11 6 - - SW 0 0,2
17.01.2020 20:00:00 3,2 1,8 - 11 6 - - SW 0 0,0
17.01.2020 19:00:00 3,6 1,8 - 11 6 - - SW 0 0,0
17.01.2020 18:00:00 3,9 2,3 - 8 4 - - SSW 0 0,2
17.01.2020 17:00:00 4,9 3,0 - 9 5 - - W 0 0,2
17.01.2020 16:00:00 5,3 2,5 - 15 8 - - SW 12 0,0
17.01.2020 15:00:00 6,5 2,4 - 13 7 - - SSW 42 0,0
17.01.2020 14:00:00 6,7 3,5 - 13 7 - - SW 6 0,2
17.01.2020 13:00:00 6,8 1,8 - 16 9 - - WSW 12 0,0
17.01.2020 12:00:00 5,9 1,8 - 13 7 - - W 0 0,0
17.01.2020 11:00:00 5,6 1,8 - 22 12 - - W 12 0,0
17.01.2020 10:00:00 5,6 2,5 - 29 16 48 26 W 0 0,2
17.01.2020 09:00:00 7,1 5,0 7,9 16 9 - - SW 0 0,0
17.01.2020 08:00:00 6,9 4,6 - 9 5 - - SW 0 0,0
17.01.2020 07:00:00 7,8 5,2 - 11 6 - - SSW 0 0,0
17.01.2020 06:00:00 8,2 6,0 - 9 5 - - SSW 0 0,0
17.01.2020 05:00:00 8,8 6,8 - 11 6 - - SSW 0 0,0
17.01.2020 04:00:00 8,4 7,0 - 5 3 - - S 0 0,0
17.01.2020 03:00:00 8,5 6,7 - 5 3 - - SSW 0 0,0
17.01.2020 02:00:00 8,5 6,8 - 8 4 - - SSW 0 0,0
17.01.2020 01:00:00 8,5 6,6 - 8 4 - - S 0 0,0
17.01.2020 00:00:00 8,5 6,5 - 8 4 - - SSW - 0,0
16.01.2020 23:00:00 8,7 6,1 - 8 4 - - SSW 0 0,0
16.01.2020 22:00:00 9,4 6,7 - 13 7 - - SW 0 0,0
16.01.2020 21:00:00 9,9 6,6 - 16 9 - - SW 0 0,0
16.01.2020 20:00:00 10,9 7,3 - 26 14 - - SW 0 0,0
16.01.2020 19:00:00 11,7 8,4 - 22 12 46 25 SSW 0 0,0
16.01.2020 18:00:00 12,1 9,6 - 26 14 48 26 SSW 0 0,4
16.01.2020 17:00:00 11,4 10,4 - 18 10 50 27 S 0 0,8
16.01.2020 16:00:00 10,7 9,8 - 24 13 55 30 S 0 1,4
16.01.2020 15:00:00 10,3 9,1 - 18 10 57 31 S 0 1,4
16.01.2020 14:00:00 10,3 9,1 - 21 11 52 28 S 0 1,4
16.01.2020 13:00:00 9,5 8,3 - 18 10 52 28 S 0 1,4
16.01.2020 12:00:00 9,7 7,7 - 18 10 - - S 0 0,6
16.01.2020 11:00:00 9,3 6,4 - 11 6 - - SSE 0 0,0
16.01.2020 10:00:00 8,5 5,6 - 13 7 - - SSE 0 0,0
16.01.2020 09:00:00 8,3 5,4 7,7 13 7 - - SSE 0 0,0
16.01.2020 08:00:00 7,9 5,1 - 13 7 - - S 0 0,0
16.01.2020 07:00:00 7,8 5,3 - 8 4 - - SSE 0 0,0
16.01.2020 06:00:00 8,0 5,8 - 11 6 - - SSE 0 0,0
16.01.2020 05:00:00 7,8 5,6 - 13 7 - - SSE 0 0,0
16.01.2020 04:00:00 7,8 5,6 - 11 6 - - SSE 0 0,0
16.01.2020 03:00:00 7,1 5,2 - 8 4 - - SSW 0 0,0
16.01.2020 02:00:00 6,6 4,7 - 11 6 - - S 0 0,2
16.01.2020 01:00:00 6,7 4,6 - 13 7 - - SSW 0 0,0
16.01.2020 00:00:00 6,7 4,3 - 11 6 - - SSW - 0,0
15.01.2020 23:00:00 6,5 4,2 - 11 6 - - SSW 0 0,0
15.01.2020 22:00:00 6,8 4,2 - 9 5 - - SSW 0 0,0

tt = temperature
td = dewpoint
tt -20cm = temperature -20cm
ff = wind speed
fx = gusts
dd = wind direction
sd = sunshine duration
rr = precipitation

Next stations